createdAt,value
2022-11-30T00:01:20.565Z,31.60
2022-11-30T00:03:47.903Z,29.50
2022-11-30T00:06:17.104Z,33.45
2022-11-30T00:08:43.847Z,31.25
2022-11-30T00:11:15.645Z,29.60
2022-11-30T00:13:42.191Z,31.63
2022-11-30T00:16:09.738Z,32.20
2022-11-30T00:18:36.989Z,30.63
2022-11-30T00:21:05.958Z,31.00
2022-11-30T00:23:37.428Z,28.75
2022-11-30T00:26:07.050Z,26.38
2022-11-30T00:28:35.082Z,29.52
2022-11-30T00:31:07.495Z,28.50
2022-11-30T00:33:37.374Z,25.30
2022-11-30T00:36:09.052Z,30.05
2022-11-30T00:38:36.007Z,28.10
2022-11-30T00:41:03.291Z,28.20
2022-11-30T00:43:30.215Z,25.85
2022-11-30T00:45:57.246Z,24.45
2022-11-30T00:48:23.907Z,26.77
2022-11-30T00:50:51.088Z,30.33
2022-11-30T00:53:18.831Z,29.80
2022-11-30T00:55:45.960Z,26.42
2022-11-30T00:58:12.530Z,26.42
2022-11-30T01:00:40.320Z,25.77
2022-11-30T01:03:07.233Z,27.05
2022-11-30T01:05:34.613Z,26.70
2022-11-30T01:08:03.269Z,25.17
2022-11-30T01:10:30.168Z,25.35
2022-11-30T01:12:57.057Z,29.52
2022-11-30T01:15:23.867Z,24.90
2022-11-30T01:17:50.396Z,25.17
2022-11-30T01:20:17.278Z,26.20
2022-11-30T01:22:43.849Z,26.38
2022-11-30T01:25:11.004Z,25.67
2022-11-30T01:27:37.470Z,27.40
2022-11-30T01:30:05.463Z,23.20
2022-11-30T01:32:32.235Z,23.38
2022-11-30T01:34:58.735Z,22.25
2022-11-30T01:37:25.361Z,21.92
2022-11-30T01:39:51.901Z,21.23
2022-11-30T01:42:20.263Z,22.52
2022-11-30T01:44:51.173Z,23.48
2022-11-30T01:47:20.045Z,21.55
2022-11-30T01:49:49.840Z,22.45
2022-11-30T01:52:51.524Z,27.58
2022-11-30T01:55:36.199Z,24.27
2022-11-30T01:58:11.368Z,22.80
2022-11-30T02:00:43.184Z,25.13
2022-11-30T02:03:41.008Z,25.65
2022-11-30T02:06:08.263Z,25.35
2022-11-30T02:08:34.896Z,27.75
2022-11-30T02:11:06.058Z,26.98
2022-11-30T02:13:48.127Z,25.95
2022-11-30T02:16:58.408Z,25.48
2022-11-30T02:19:43.542Z,27.88
2022-11-30T02:22:42.949Z,25.92
2022-11-30T02:25:18.214Z,25.08
2022-11-30T02:27:56.685Z,25.65
2022-11-30T02:30:24.275Z,29.00
2022-11-30T02:32:58.228Z,25.10
2022-11-30T02:35:29.913Z,24.73
2022-11-30T02:37:58.126Z,28.48
2022-11-30T02:40:24.734Z,25.00
2022-11-30T02:42:54.090Z,26.20
2022-11-30T02:45:29.795Z,24.58
2022-11-30T02:48:09.693Z,24.30
2022-11-30T02:50:44.667Z,25.52
2022-11-30T02:53:11.510Z,23.55
2022-11-30T02:55:38.031Z,25.42
2022-11-30T02:58:05.467Z,24.90
2022-11-30T03:00:32.173Z,27.48
2022-11-30T03:02:58.697Z,25.45
2022-11-30T03:05:25.216Z,26.85
2022-11-30T03:07:51.720Z,27.38
2022-11-30T03:10:18.390Z,28.63
2022-11-30T03:12:44.958Z,26.63
2022-11-30T03:15:11.548Z,28.02
2022-11-30T03:17:38.060Z,27.70
2022-11-30T03:20:05.261Z,25.15
2022-11-30T03:22:31.711Z,25.88
2022-11-30T03:24:58.246Z,27.23
2022-11-30T03:27:24.772Z,24.35
2022-11-30T03:29:51.273Z,24.75
2022-11-30T03:32:18.896Z,25.02
2022-11-30T03:34:45.726Z,27.15
2022-11-30T03:37:12.376Z,25.90
2022-11-30T03:39:38.828Z,25.92
2022-11-30T03:42:05.442Z,27.20
2022-11-30T03:44:31.903Z,25.05
2022-11-30T03:46:58.458Z,25.90
2022-11-30T03:49:24.930Z,28.92
2022-11-30T03:51:51.376Z,29.25
2022-11-30T03:54:17.983Z,27.90
2022-11-30T03:56:44.495Z,24.75
2022-11-30T03:59:11.006Z,28.52
2022-11-30T04:01:41.967Z,27.38
2022-11-30T04:04:08.533Z,25.58
2022-11-30T04:06:35.064Z,25.95
2022-11-30T04:09:01.741Z,26.40
2022-11-30T04:11:29.432Z,26.90
2022-11-30T04:13:55.899Z,25.15
2022-11-30T04:16:22.805Z,26.77
2022-11-30T04:18:49.380Z,27.65
2022-11-30T04:21:15.866Z,29.17
2022-11-30T04:23:42.324Z,26.05
2022-11-30T04:26:12.189Z,25.55
2022-11-30T04:28:38.787Z,27.10
2022-11-30T04:31:06.588Z,27.30
2022-11-30T04:33:33.402Z,24.85
2022-11-30T04:36:03.327Z,22.98
2022-11-30T04:38:30.347Z,24.90
2022-11-30T04:40:57.020Z,28.23
2022-11-30T04:43:23.911Z,27.77
2022-11-30T04:45:50.624Z,25.80
2022-11-30T04:48:18.811Z,26.90
2022-11-30T04:50:45.298Z,27.98
2022-11-30T04:53:12.313Z,28.02
2022-11-30T04:55:40.954Z,27.52
2022-11-30T04:58:07.820Z,29.80
2022-11-30T05:00:35.282Z,25.65
2022-11-30T05:03:02.051Z,26.92
2022-11-30T05:05:28.615Z,24.63
2022-11-30T05:07:57.560Z,25.08
2022-11-30T05:10:24.988Z,25.15
2022-11-30T05:12:51.917Z,25.02
2022-11-30T05:15:18.602Z,26.40
2022-11-30T05:17:45.162Z,24.05
2022-11-30T05:20:11.858Z,26.10
2022-11-30T05:22:38.396Z,25.40
2022-11-30T05:25:05.176Z,28.35
2022-11-30T05:27:31.727Z,25.73
2022-11-30T05:29:59.007Z,26.38
2022-11-30T05:32:25.503Z,23.92
2022-11-30T05:34:52.307Z,24.27
2022-11-30T05:37:19.488Z,21.30
2022-11-30T05:39:46.080Z,23.98
2022-11-30T05:42:12.620Z,22.30
2022-11-30T05:44:39.084Z,23.52
2022-11-30T05:47:05.674Z,22.15
2022-11-30T05:49:32.237Z,22.88
2022-11-30T05:51:58.757Z,24.92
2022-11-30T05:54:25.225Z,24.15
2022-11-30T05:56:54.945Z,25.65
2022-11-30T05:59:25.864Z,23.52
2022-11-30T06:01:53.144Z,25.48
2022-11-30T06:04:20.104Z,23.92
2022-11-30T06:06:46.874Z,23.75
2022-11-30T06:09:15.712Z,24.10
2022-11-30T06:11:42.211Z,22.10
2022-11-30T06:14:08.974Z,24.10
2022-11-30T06:16:35.586Z,26.30
2022-11-30T06:19:02.120Z,22.48
2022-11-30T06:21:28.591Z,21.83
2022-11-30T06:23:55.155Z,20.77
2022-11-30T06:26:21.637Z,19.58
2022-11-30T06:28:48.969Z,22.02
2022-11-30T06:31:16.205Z,23.58
2022-11-30T06:33:43.173Z,21.65
2022-11-30T06:36:09.775Z,20.88
2022-11-30T06:38:36.382Z,20.33
2022-11-30T06:41:09.833Z,19.45
2022-11-30T06:43:38.361Z,21.35
2022-11-30T06:46:06.893Z,23.30
2022-11-30T06:48:34.733Z,19.35
2022-11-30T06:51:08.879Z,21.60
2022-11-30T06:53:36.186Z,21.05
2022-11-30T06:56:10.361Z,20.58
2022-11-30T06:58:39.071Z,16.90
2022-11-30T07:01:08.045Z,18.38
2022-11-30T07:03:34.680Z,18.92
2022-11-30T07:06:01.193Z,18.67
2022-11-30T07:08:27.687Z,18.70
2022-11-30T07:10:54.257Z,18.60
2022-11-30T07:13:20.755Z,20.48
2022-11-30T07:15:47.346Z,21.58
2022-11-30T07:18:14.003Z,18.92
2022-11-30T07:20:40.544Z,20.85
2022-11-30T07:23:25.844Z,21.42
2022-11-30T07:26:06.279Z,18.52
2022-11-30T07:28:38.455Z,20.00
2022-11-30T07:31:16.632Z,17.67
2022-11-30T07:33:46.281Z,18.40
2022-11-30T07:36:13.155Z,19.75
2022-11-30T07:38:39.740Z,19.42
2022-11-30T07:41:06.708Z,21.45
2022-11-30T07:43:33.279Z,15.00
2022-11-30T07:46:18.638Z,28.05
2022-11-30T07:48:46.611Z,10.98
2022-11-30T07:51:21.610Z,8.80
2022-11-30T07:53:48.413Z,8.82
2022-11-30T07:56:18.279Z,9.73
2022-11-30T07:58:45.163Z,9.52
2022-11-30T08:01:14.864Z,8.02
2022-11-30T08:03:41.931Z,8.20
2022-11-30T08:06:13.858Z,8.82
2022-11-30T08:08:44.927Z,9.27
2022-11-30T08:11:14.346Z,7.57
2022-11-30T08:13:41.843Z,9.65
2022-11-30T08:16:12.925Z,9.27
2022-11-30T08:18:40.894Z,8.80
2022-11-30T08:21:09.030Z,8.93
2022-11-30T08:23:40.852Z,10.85
2022-11-30T08:26:29.366Z,7.45
2022-11-30T08:28:57.020Z,10.57
2022-11-30T08:31:26.988Z,9.95
2022-11-30T08:34:02.084Z,9.15
2022-11-30T08:36:29.668Z,13.35
2022-11-30T08:39:01.002Z,11.05
2022-11-30T08:41:27.988Z,11.23
2022-11-30T08:43:54.922Z,12.43
2022-11-30T08:49:25.487Z,11.88
2022-11-30T08:57:33.413Z,16.95
2022-11-30T08:59:59.852Z,18.52
2022-11-30T09:02:26.465Z,16.95
2022-11-30T09:04:53.529Z,15.68
2022-11-30T09:07:20.258Z,16.92
2022-11-30T09:09:47.295Z,17.38
2022-11-30T09:12:13.720Z,19.60
2022-11-30T09:14:40.187Z,22.40
2022-11-30T09:17:06.632Z,25.30
2022-11-30T09:19:33.191Z,32.30
2022-11-30T09:22:00.474Z,31.23
2022-11-30T09:24:26.996Z,32.00
2022-11-30T09:26:56.725Z,29.35
2022-11-30T09:29:23.860Z,33.03
2022-11-30T09:31:51.658Z,33.72
2022-11-30T09:34:18.281Z,35.70
2022-11-30T09:36:44.800Z,42.13
2022-11-30T09:39:13.887Z,33.88
2022-11-30T09:41:53.917Z,34.03
2022-11-30T09:44:23.392Z,32.90
2022-11-30T09:47:05.030Z,36.35
2022-11-30T09:49:37.256Z,35.45
2022-11-30T09:52:09.782Z,32.65
2022-11-30T09:54:38.723Z,33.00
2022-11-30T09:57:32.515Z,35.20
2022-11-30T10:00:02.465Z,39.97
2022-11-30T10:02:39.537Z,37.30
2022-11-30T10:05:15.756Z,32.95
2022-11-30T10:07:51.559Z,40.72
2022-11-30T10:10:35.897Z,40.53
2022-11-30T10:13:05.642Z,38.70
2022-11-30T10:15:44.424Z,43.40
2022-11-30T10:18:23.229Z,39.92
2022-11-30T10:21:05.306Z,47.03
2022-11-30T10:23:58.660Z,45.05
2022-11-30T10:26:38.150Z,45.95
2022-11-30T10:29:18.855Z,40.78
2022-11-30T10:31:49.098Z,40.38
2022-11-30T10:34:21.181Z,41.58
2022-11-30T10:37:13.971Z,45.50
2022-11-30T10:39:58.937Z,43.15
2022-11-30T10:42:32.884Z,45.13
2022-11-30T10:45:00.558Z,41.17
2022-11-30T10:47:36.654Z,44.70
2022-11-30T10:50:07.875Z,43.63
2022-11-30T10:53:01.082Z,45.17
2022-11-30T10:55:36.271Z,43.13
2022-11-30T10:58:13.287Z,44.15
2022-11-30T11:00:39.788Z,50.67
2022-11-30T11:03:24.262Z,48.30
2022-11-30T11:06:20.942Z,46.08
2022-11-30T11:08:47.595Z,46.30
2022-11-30T11:11:37.370Z,45.28
2022-11-30T11:14:16.115Z,47.03
2022-11-30T11:16:57.157Z,45.58
2022-11-30T11:19:41.846Z,45.45
2022-11-30T11:22:21.694Z,40.58
2022-11-30T11:24:50.559Z,42.90
2022-11-30T11:27:31.900Z,45.47
2022-11-30T11:30:28.653Z,42.03
2022-11-30T11:33:13.623Z,41.63
2022-11-30T11:35:45.839Z,38.67
2022-11-30T11:38:27.105Z,40.95
2022-11-30T11:41:02.425Z,34.13
2022-11-30T11:43:32.272Z,35.42
2022-11-30T11:46:11.892Z,33.65
2022-11-30T11:48:46.010Z,36.40
2022-11-30T11:51:13.921Z,35.00
2022-11-30T11:53:53.625Z,30.52
2022-11-30T11:56:32.758Z,31.27
2022-11-30T11:59:32.160Z,30.15
2022-11-30T12:02:14.107Z,31.35
2022-11-30T12:04:41.455Z,27.42
2022-11-30T12:07:24.205Z,29.35
2022-11-30T12:10:02.990Z,26.33
2022-11-30T12:12:29.568Z,30.38
2022-11-30T12:14:56.670Z,26.85
2022-11-30T12:17:35.324Z,26.48
2022-11-30T12:20:18.328Z,23.90
2022-11-30T12:22:50.592Z,26.33
2022-11-30T12:25:27.654Z,22.50
2022-11-30T12:28:21.979Z,27.92
2022-11-30T12:30:51.392Z,24.02
2022-11-30T12:33:44.255Z,24.30
2022-11-30T12:36:31.654Z,22.45
2022-11-30T12:39:04.542Z,24.08
2022-11-30T12:41:51.403Z,22.40
2022-11-30T12:44:44.801Z,20.48
2022-11-30T12:47:20.956Z,21.35
2022-11-30T12:49:57.859Z,20.35
2022-11-30T12:52:58.377Z,20.08
2022-11-30T12:55:54.567Z,20.70
2022-11-30T12:58:36.309Z,20.77
2022-11-30T13:01:43.051Z,20.65
2022-11-30T13:04:19.353Z,20.85
2022-11-30T13:06:52.842Z,20.48
2022-11-30T13:09:30.180Z,20.33
2022-11-30T13:12:04.227Z,20.50
2022-11-30T13:14:33.631Z,19.35
2022-11-30T13:17:06.482Z,19.45
2022-11-30T13:19:39.848Z,16.95
2022-11-30T13:22:14.723Z,19.15
2022-11-30T13:24:47.880Z,18.10
2022-11-30T13:27:22.840Z,18.08
2022-11-30T13:29:54.820Z,22.27
2022-11-30T13:32:56.213Z,18.25
2022-11-30T13:35:29.876Z,20.90
2022-11-30T13:38:28.630Z,21.08
2022-11-30T13:40:58.340Z,19.60
2022-11-30T13:43:28.755Z,21.33
2022-11-30T13:46:05.945Z,17.58
2022-11-30T13:48:37.575Z,19.27
2022-11-30T13:51:04.998Z,20.90
2022-11-30T13:53:35.854Z,20.27
2022-11-30T13:56:05.654Z,22.00
2022-11-30T13:58:32.803Z,19.58
2022-11-30T14:01:23.401Z,20.02
2022-11-30T14:04:14.418Z,21.50
2022-11-30T14:06:51.237Z,20.77
2022-11-30T14:09:40.194Z,21.05
2022-11-30T14:12:31.658Z,22.63
2022-11-30T14:14:59.682Z,20.27
2022-11-30T14:17:27.992Z,23.45
2022-11-30T14:20:00.330Z,20.85
2022-11-30T14:22:29.618Z,22.75
2022-11-30T14:24:56.607Z,21.63
2022-11-30T14:27:25.116Z,21.30
2022-11-30T14:29:57.244Z,21.92
2022-11-30T14:32:48.882Z,20.70
2022-11-30T14:35:20.728Z,23.73
2022-11-30T14:37:56.054Z,22.92
2022-11-30T14:40:26.203Z,22.27
2022-11-30T14:42:55.957Z,23.08
2022-11-30T14:45:29.097Z,22.88
2022-11-30T14:48:17.853Z,24.95
2022-11-30T14:50:48.234Z,22.23
2022-11-30T14:53:55.266Z,21.70
2022-11-30T14:56:36.068Z,24.75
2022-11-30T14:59:49.328Z,24.10
2022-11-30T15:02:29.389Z,22.20
2022-11-30T15:04:57.883Z,22.38
2022-11-30T15:07:25.419Z,18.73
2022-11-30T15:10:08.971Z,16.45
2022-11-30T15:12:40.841Z,17.63
2022-11-30T15:15:15.912Z,17.40
2022-11-30T15:17:53.388Z,17.20
2022-11-30T15:20:38.777Z,16.05
2022-11-30T15:23:05.405Z,18.05
2022-11-30T15:25:39.056Z,17.10
2022-11-30T15:28:07.318Z,16.95
2022-11-30T15:30:38.498Z,19.45
2022-11-30T15:33:05.504Z,19.98
2022-11-30T15:35:50.372Z,18.73
2022-11-30T15:38:25.722Z,20.23
2022-11-30T15:41:03.117Z,19.02
2022-11-30T15:43:37.428Z,18.27
2022-11-30T15:46:04.875Z,20.75
2022-11-30T15:48:38.484Z,19.33
2022-11-30T15:51:05.869Z,19.67
2022-11-30T15:53:35.988Z,18.98
2022-11-30T15:56:08.686Z,17.70
2022-11-30T15:58:36.876Z,19.40
2022-11-30T16:01:14.179Z,18.35
2022-11-30T16:03:55.650Z,19.85
2022-11-30T16:06:35.080Z,19.83
2022-11-30T16:09:18.668Z,17.42
2022-11-30T16:11:53.847Z,18.63
2022-11-30T16:14:20.632Z,18.85
2022-11-30T16:16:47.969Z,18.50
2022-11-30T16:19:14.610Z,19.45
2022-11-30T16:21:41.462Z,20.05
2022-11-30T16:24:13.502Z,17.45
2022-11-30T16:26:55.610Z,16.95
2022-11-30T16:29:22.544Z,19.30
2022-11-30T16:31:49.198Z,19.23
2022-11-30T16:34:15.806Z,20.33
2022-11-30T16:36:43.336Z,20.08
2022-11-30T16:39:12.182Z,20.33
2022-11-30T16:41:38.765Z,17.92
2022-11-30T16:44:12.201Z,20.88
2022-11-30T16:46:38.646Z,19.85
2022-11-30T16:49:05.173Z,17.92
2022-11-30T16:51:36.189Z,18.83
2022-11-30T16:54:03.072Z,21.92
2022-11-30T16:56:29.665Z,20.67
2022-11-30T16:58:56.195Z,20.60
2022-11-30T17:01:35.096Z,21.95
2022-11-30T17:04:24.045Z,23.23
2022-11-30T17:06:53.649Z,20.45
2022-11-30T17:09:23.046Z,24.40
2022-11-30T17:11:50.930Z,21.98
2022-11-30T17:14:18.216Z,21.80
2022-11-30T17:16:44.825Z,22.30
2022-11-30T17:19:11.734Z,23.58
2022-11-30T17:21:40.111Z,24.90
2022-11-30T17:24:07.364Z,24.92
2022-11-30T17:26:33.977Z,22.52
2022-11-30T17:29:00.484Z,24.98
2022-11-30T17:31:27.173Z,24.17
2022-11-30T17:33:53.780Z,25.00
2022-11-30T17:36:20.362Z,26.25
2022-11-30T17:38:46.901Z,26.20
2022-11-30T17:41:19.096Z,23.40
2022-11-30T17:43:46.027Z,24.50
2022-11-30T17:46:15.759Z,26.25
2022-11-30T17:48:45.991Z,26.67
2022-11-30T17:51:14.653Z,25.48
2022-11-30T17:53:44.370Z,24.90
2022-11-30T17:56:19.553Z,24.95
2022-11-30T17:59:00.216Z,24.33
2022-11-30T18:01:29.590Z,26.00
2022-11-30T18:04:05.474Z,26.58
2022-11-30T18:06:40.886Z,25.52
2022-11-30T18:09:10.833Z,27.58
2022-11-30T18:11:40.664Z,25.05
2022-11-30T18:14:07.292Z,26.20
2022-11-30T18:16:37.144Z,27.33
2022-11-30T18:19:12.358Z,25.38
2022-11-30T18:21:40.244Z,25.85
2022-11-30T18:24:07.554Z,26.98
2022-11-30T18:26:35.537Z,26.10
2022-11-30T18:29:02.709Z,26.60
2022-11-30T18:31:31.269Z,27.38
2022-11-30T18:34:00.099Z,30.08
2022-11-30T18:36:27.196Z,26.58
2022-11-30T18:38:54.460Z,24.38
2022-11-30T18:41:22.931Z,26.85
2022-11-30T18:43:50.123Z,29.52
2022-11-30T18:46:16.647Z,27.40
2022-11-30T18:48:43.215Z,25.63
2022-11-30T18:51:21.075Z,22.98
2022-11-30T18:53:47.872Z,27.20
2022-11-30T18:56:17.793Z,25.75
2022-11-30T18:58:45.181Z,27.80
2022-11-30T19:01:18.205Z,26.35
2022-11-30T19:03:53.527Z,25.90
2022-11-30T19:06:21.004Z,26.27
2022-11-30T19:08:48.117Z,26.20
2022-11-30T19:11:15.555Z,27.05
2022-11-30T19:13:42.333Z,27.58
2022-11-30T19:16:15.808Z,26.23
2022-11-30T19:18:44.884Z,26.73
2022-11-30T19:21:14.239Z,28.70
2022-11-30T19:23:41.124Z,27.75
2022-11-30T19:26:09.903Z,28.42
2022-11-30T19:28:38.008Z,27.05
2022-11-30T19:31:16.014Z,28.42
2022-11-30T19:33:45.332Z,28.73
2022-11-30T19:36:14.952Z,28.83
2022-11-30T19:38:41.540Z,29.58
2022-11-30T19:41:09.782Z,31.85
2022-11-30T19:43:36.937Z,32.05
2022-11-30T19:46:18.763Z,28.00
2022-11-30T19:48:45.756Z,28.90
2022-11-30T19:51:18.033Z,29.80
2022-11-30T19:53:45.317Z,28.63
2022-11-30T19:56:17.341Z,31.00
2022-11-30T19:58:45.757Z,31.17
2022-11-30T20:01:19.352Z,33.22
2022-11-30T20:03:45.936Z,30.25
2022-11-30T20:06:12.455Z,31.10
2022-11-30T20:08:38.957Z,31.30
2022-11-30T20:11:07.004Z,32.35
2022-11-30T20:13:33.527Z,31.30
2022-11-30T20:16:06.451Z,34.67
2022-11-30T20:18:32.999Z,31.98
2022-11-30T20:21:16.690Z,33.30
2022-11-30T20:23:44.734Z,30.88
2022-11-30T20:26:30.091Z,31.25
2022-11-30T20:28:58.399Z,32.88
2022-11-30T20:31:26.236Z,32.05
2022-11-30T20:33:52.757Z,33.30
2022-11-30T20:36:20.670Z,34.05
2022-11-30T20:38:47.501Z,32.85
2022-11-30T20:41:20.019Z,30.98
2022-11-30T20:43:47.202Z,28.38
2022-11-30T20:46:19.203Z,29.77
2022-11-30T20:48:46.428Z,29.92
2022-11-30T20:51:30.603Z,28.67
2022-11-30T20:54:01.063Z,28.58
2022-11-30T20:56:27.775Z,32.13
2022-11-30T20:58:54.340Z,30.83
2022-11-30T21:01:22.254Z,31.05
2022-11-30T21:03:49.414Z,30.00
2022-11-30T21:06:16.823Z,29.17
2022-11-30T21:08:43.708Z,30.02
2022-11-30T21:11:16.229Z,31.50
2022-11-30T21:13:44.205Z,31.38
2022-11-30T21:16:11.958Z,28.40
2022-11-30T21:18:40.411Z,30.05
2022-11-30T21:21:13.211Z,31.08
2022-11-30T21:23:40.064Z,28.55
2022-11-30T21:26:08.760Z,36.95
2022-11-30T21:28:38.193Z,34.13
2022-11-30T21:31:05.927Z,33.50
2022-11-30T21:33:32.791Z,36.20
2022-11-30T21:36:01.491Z,36.45
2022-11-30T21:38:28.040Z,35.40
2022-11-30T21:40:59.902Z,37.20
2022-11-30T21:43:28.017Z,38.97
2022-11-30T21:46:03.230Z,37.72
2022-11-30T21:48:34.099Z,41.03
2022-11-30T21:51:08.711Z,38.53
2022-11-30T21:53:37.911Z,42.10
2022-11-30T21:56:13.555Z,41.67
2022-11-30T21:58:42.106Z,43.42
2022-11-30T22:01:12.632Z,45.80
2022-11-30T22:03:39.182Z,41.78
2022-11-30T22:06:12.779Z,43.97
2022-11-30T22:08:40.083Z,44.97
2022-11-30T22:11:10.455Z,49.40
2022-11-30T22:13:37.599Z,40.65
2022-11-30T22:16:12.657Z,40.95
2022-11-30T22:18:39.915Z,43.60
2022-11-30T22:21:14.621Z,44.08
2022-11-30T22:24:02.561Z,40.63
2022-11-30T22:26:30.588Z,41.72
2022-11-30T22:29:01.386Z,41.08
2022-11-30T22:31:33.975Z,42.45
2022-11-30T22:34:01.016Z,44.92
2022-11-30T22:36:30.437Z,44.20
2022-11-30T22:39:02.831Z,41.67
2022-11-30T22:41:30.094Z,41.40
2022-11-30T22:43:57.527Z,39.85
2022-11-30T22:46:28.487Z,39.83
2022-11-30T22:48:55.674Z,40.13
2022-11-30T22:51:24.918Z,43.90
2022-11-30T22:53:52.603Z,39.80
2022-11-30T22:56:27.699Z,40.75
2022-11-30T22:58:55.963Z,44.35
2022-11-30T23:01:31.458Z,45.65
2022-11-30T23:06:28.008Z,41.88
2022-11-30T23:08:54.716Z,47.20
2022-11-30T23:11:24.019Z,47.95
2022-11-30T23:13:50.593Z,48.53
2022-11-30T23:16:18.223Z,45.30
2022-11-30T23:18:48.323Z,51.45
2022-11-30T23:21:24.267Z,46.95
2022-11-30T23:23:50.909Z,48.42
2022-11-30T23:26:26.026Z,54.72
2022-11-30T23:28:54.138Z,51.35
2022-11-30T23:31:33.513Z,58.13
2022-11-30T23:34:09.011Z,56.45
2022-11-30T23:36:36.754Z,58.72
2022-11-30T23:39:10.215Z,60.95
2022-11-30T23:41:36.864Z,59.55
2022-11-30T23:44:03.864Z,60.83
2022-11-30T23:46:31.101Z,56.47
2022-11-30T23:48:57.669Z,58.42
2022-11-30T23:51:24.701Z,54.95
2022-11-30T23:53:51.361Z,54.00
2022-11-30T23:56:19.823Z,55.15
2022-11-30T23:58:46.614Z,54.80
